Archives de nos stations météo

Station météo de Saint-Michel-en-Brenne

Altitude de la station : 93 m






Données météorologiques pour le 04/02/2023
Date
Heure
Températures Humidité Point de rosée Vitesse
du vent
Direction Rafales Windchill Pression Pluviométrie
Cumul
Date
Heure
Températures Humidité Point de rosée Vitesse
du vent
Direction Rafales Windchill Pression Pluviométrie
Cumul
04/02/2023 23:458.6 °C77 %5.0 °C6 km/hN23 km/h7.2 1042 hPa-
04/02/2023 23:318.6 °C77 %5.0 °C5 km/hNNE10 km/h8.3 1042 hPa-
04/02/2023 23:308.6 °C77 %5.0 °C6 km/hNNE23 km/h7.8 1042 hPa-
04/02/2023 23:168.7 °C76 %4.4 °C6 km/hN14 km/h7.8 1042 hPa-
04/02/2023 23:158.7 °C76 %4.4 °C3 km/hNNO23 km/h8.3 1042 hPa-
04/02/2023 23:018.8 °C75 %4.4 °C13 km/hN16 km/h6.7 1041 hPa-
04/02/2023 23:008.8 °C75 %4.4 °C8 km/hN23 km/h7.8 1041 hPa-
04/02/2023 22:468.8 °C74 %4.4 °C8 km/hN13 km/h7.8 1041 hPa-
04/02/2023 22:458.7 °C73 %3.9 °C6 km/hNNO23 km/h7.8 1041 hPa-
04/02/2023 22:318.7 °C72 %3.9 °C3 km/hNNO10 km/h8.3 1041 hPa-
04/02/2023 22:308.7 °C72 %3.9 °C6 km/hNNO23 km/h7.8 1041 hPa-
04/02/2023 22:168.7 °C71 %3.9 °C3 km/hNNO13 km/h8.3 1041 hPa-
04/02/2023 22:158.7 °C71 %3.9 °C5 km/hNO23 km/h8.3 1041 hPa-
04/02/2023 22:018.7 °C70 %3.3 °C6 km/hNO8 km/h7.8 1041 hPa-
04/02/2023 22:008.8 °C70 %3.3 °C8 km/hNO23 km/h7.8 1041 hPa-
04/02/2023 21:468.8 °C70 %3.3 °C6 km/hNNO8 km/h7.8 1041 hPa-
04/02/2023 21:458.8 °C70 %3.3 °C5 km/hNNO23 km/h8.3 1041 hPa-
04/02/2023 21:318.8 °C70 %3.3 °C6 km/hNNO8 km/h7.8 1041 hPa-
04/02/2023 21:308.8 °C70 %3.3 °C3 km/hNNO23 km/h8.3 1041 hPa-
04/02/2023 21:168.8 °C71 %3.9 °C5 km/hNO8 km/h8.3 1041 hPa-
04/02/2023 21:158.8 °C71 %3.9 °C5 km/hNO23 km/h8.3 1041 hPa-
04/02/2023 21:018.7 °C72 %3.9 °C2 km/hNO6 km/h8.9 1041 hPa-
04/02/2023 21:008.7 °C72 %3.9 °C5 km/hNO23 km/h8.3 1041 hPa-
04/02/2023 20:468.8 °C72 %3.9 °C3 km/hN5 km/h8.3 1041 hPa-
04/02/2023 20:458.8 °C72 %3.9 °C2 km/hN23 km/h8.9 1041 hPa-
04/02/2023 20:318.9 °C72 %3.9 °C---8.9 1041 hPa-
04/02/2023 20:308.9 °C72 %3.9 °C-N23 km/h8.9 1041 hPa-
04/02/2023 20:159.1 °C71 %3.9 °C---8.9 1041 hPa-
04/02/2023 20:149.1 °C71 %3.9 °C-N23 km/h8.9 1041 hPa-
04/02/2023 20:009.2 °C71 %3.9 °C-N2 km/h9.4 1041 hPa-
04/02/2023 19:599.2 °C71 %3.9 °C-N23 km/h9.4 1041 hPa-
04/02/2023 19:459.3 °C71 %4.4 °C-N8 km/h9.4 1041 hPa-
04/02/2023 19:449.3 °C71 %4.4 °C-N23 km/h9.4 1041 hPa-
04/02/2023 19:309.3 °C71 %4.4 °C6 km/hNNO10 km/h8.3 1041 hPa-
04/02/2023 19:299.3 °C71 %4.4 °C5 km/hN23 km/h8.9 1040 hPa-
04/02/2023 19:159.4 °C70 %3.9 °C10 km/hNNE13 km/h7.8 1040 hPa-
04/02/2023 19:149.4 °C70 %4.4 °C5 km/hNNE23 km/h8.9 1040 hPa-
04/02/2023 19:009.5 °C69 %3.9 °C3 km/hNNO14 km/h8.9 1040 hPa-
04/02/2023 18:599.5 °C69 %3.9 °C8 km/hN23 km/h8.3 1040 hPa-
04/02/2023 18:459.5 °C70 %4.4 °C8 km/hNE16 km/h8.3 1040 hPa-
04/02/2023 18:449.5 °C70 %4.4 °C6 km/hN23 km/h8.3 1040 hPa-
04/02/2023 18:309.5 °C70 %4.4 °C13 km/hNNO18 km/h7.2 1040 hPa-
04/02/2023 18:299.6 °C70 %4.4 °C11 km/hNNE23 km/h7.8 1040 hPa-
04/02/2023 18:159.6 °C70 %4.4 °C5 km/hNNO13 km/h8.9 1040 hPa-
04/02/2023 18:149.6 °C70 %4.4 °C6 km/hNNE23 km/h8.3 1040 hPa-
04/02/2023 18:009.7 °C70 %4.4 °C6 km/hN19 km/h8.3 1040 hPa-
04/02/2023 17:599.7 °C70 %4.4 °C8 km/hNNO23 km/h8.9 1040 hPa-
04/02/2023 17:459.7 °C71 %4.4 °C13 km/hNNE18 km/h7.2 1040 hPa-
04/02/2023 17:449.7 °C72 %5.0 °C6 km/hENE18 km/h8.9 1040 hPa-
04/02/2023 17:309.8 °C73 %5.0 °C6 km/hN13 km/h8.9 1040 hPa-
04/02/2023 17:299.8 °C73 %5.0 °C13 km/hN16 km/h7.8 1040 hPa-
04/02/2023 17:159.8 °C74 %5.6 °C10 km/hNNO18 km/h8.3 1040 hPa-
04/02/2023 17:149.8 °C74 %5.6 °C10 km/hN16 km/h8.3 1040 hPa-
04/02/2023 17:009.8 °C75 %5.6 °C2 km/hNNE10 km/h10.0 1040 hPa-
04/02/2023 16:599.7 °C75 %5.6 °C3 km/hNNE16 km/h9.4 1040 hPa-
04/02/2023 16:459.8 °C75 %5.6 °C6 km/hN13 km/h8.9 1040 hPa-
04/02/2023 16:449.8 °C75 %5.6 °C8 km/hNNE16 km/h8.9 1040 hPa-
04/02/2023 16:309.8 °C75 %5.6 °C5 km/hNNO16 km/h9.4 1040 hPa-
04/02/2023 16:299.8 °C75 %5.6 °C5 km/hN16 km/h9.4 1040 hPa-
04/02/2023 16:1510.1 °C75 %5.6 °C8 km/hNNE13 km/h8.9 1040 hPa-
04/02/2023 16:1410.1 °C75 %5.6 °C6 km/hNNE16 km/h8.9 1040 hPa-
04/02/2023 16:0010.2 °C74 %5.6 °C8 km/hN13 km/h8.9 1040 hPa-
04/02/2023 15:5910.2 °C74 %5.6 °C6 km/hN16 km/h8.9 1039 hPa-
04/02/2023 15:4510.3 °C74 %6.1 °C8 km/hN16 km/h9.4 1039 hPa-
04/02/2023 15:4410.3 °C74 %6.1 °C8 km/hNNO16 km/h9.4 1039 hPa-
04/02/2023 15:3010.4 °C74 %6.1 °C8 km/hNNO16 km/h9.4 1039 hPa-
04/02/2023 15:2910.4 °C74 %6.1 °C8 km/hNNO16 km/h9.4 1039 hPa-
04/02/2023 15:1510.2 °C74 %5.6 °C5 km/hNNO13 km/h9.4 1039 hPa-
04/02/2023 15:1410.2 °C74 %5.6 °C8 km/hN14 km/h8.9 1039 hPa-
04/02/2023 15:0010.3 °C74 %6.1 °C6 km/hNNO16 km/h10.6 1039 hPa-
04/02/2023 14:5910.3 °C74 %6.1 °C6 km/hN14 km/h10.6 1039 hPa-
04/02/2023 14:4510.3 °C75 %6.1 °C10 km/hN14 km/h9.4 1040 hPa-
04/02/2023 14:4410.2 °C75 %6.1 °C6 km/hN14 km/h8.9 1039 hPa-
04/02/2023 14:3010.1 °C75 %6.1 °C8 km/hN13 km/h8.9 1040 hPa-
04/02/2023 14:2910.2 °C75 %6.1 °C6 km/hNNE13 km/h8.9 1039 hPa-
04/02/2023 14:1510.1 °C75 %5.6 °C8 km/hN13 km/h8.9 1040 hPa-
04/02/2023 14:1410.1 °C74 %5.6 °C5 km/hN13 km/h9.4 1040 hPa-
04/02/2023 14:0010.1 °C75 %6.1 °C3 km/hNNE13 km/h9.4 1040 hPa-
04/02/2023 13:5910.2 °C75 %6.1 °C5 km/hNNE13 km/h9.4 1040 hPa-
04/02/2023 13:4510.0 °C76 %6.1 °C6 km/hNNO10 km/h8.9 1040 hPa-
04/02/2023 13:4410.0 °C76 %6.1 °C5 km/hNNO13 km/h9.4 1040 hPa-
04/02/2023 13:309.8 °C77 %6.1 °C6 km/hNNO13 km/h8.9 1040 hPa-
04/02/2023 13:299.8 °C77 %6.1 °C8 km/hNNO13 km/h8.9 1040 hPa-
04/02/2023 13:159.6 °C77 %5.6 °C3 km/hNNE8 km/h8.9 1040 hPa-
04/02/2023 13:149.6 °C77 %5.6 °C5 km/hNNE13 km/h8.9 1040 hPa-
04/02/2023 13:009.4 °C78 %5.6 °C5 km/hNNE11 km/h8.9 1040 hPa-
04/02/2023 12:599.5 °C78 %6.1 °C6 km/hNE13 km/h8.3 1040 hPa-
04/02/2023 12:459.3 °C79 %5.6 °C3 km/hN10 km/h8.9 1040 hPa-
04/02/2023 12:449.3 °C79 %5.6 °C5 km/hN13 km/h8.9 1040 hPa-
04/02/2023 12:309.1 °C80 %5.6 °C5 km/hNE10 km/h8.3 1040 hPa-
04/02/2023 12:299.1 °C80 %5.6 °C5 km/hNE13 km/h8.3 1040 hPa-
04/02/2023 12:158.7 °C80 %5.6 °C2 km/hN10 km/h8.9 1040 hPa-
04/02/2023 12:148.7 °C80 %5.6 °C5 km/hN13 km/h8.3 1040 hPa-
04/02/2023 12:008.6 °C80 %5.6 °C6 km/hNNE13 km/h7.2 1040 hPa-
04/02/2023 11:458.5 °C79 %5.0 °C6 km/hN13 km/h7.2 1040 hPa-
04/02/2023 11:308.6 °C78 %5.0 °C6 km/hNE13 km/h7.8 1040 hPa-
04/02/2023 11:168.7 °C77 %5.0 °C8 km/hN10 km/h7.8 1040 hPa-
04/02/2023 11:158.7 °C77 %5.0 °C5 km/hN10 km/h8.3 1040 hPa-
04/02/2023 11:018.7 °C76 %4.4 °C5 km/hN10 km/h8.3 1040 hPa-
04/02/2023 11:008.7 °C76 %4.4 °C6 km/hNNE10 km/h7.8 1040 hPa-
04/02/2023 10:468.4 °C77 %4.4 °C5 km/hN8 km/h7.8 1040 hPa-
04/02/2023 10:458.4 °C77 %4.4 °C6 km/hNNE6 km/h7.2 1040 hPa-
04/02/2023 10:318.2 °C78 %4.4 °C3 km/hNNE3 km/h7.8 1040 hPa-
04/02/2023 10:308.2 °C78 %4.4 °C2 km/hNNE6 km/h8.3 1040 hPa-
04/02/2023 10:167.9 °C78 %4.4 °C-NNE3 km/h7.8 1040 hPa-
04/02/2023 10:157.9 °C78 %4.4 °C-NNE6 km/h7.8 1040 hPa-
04/02/2023 10:017.8 °C78 %4.4 °C-NNE2 km/h7.8 1040 hPa-
04/02/2023 10:007.8 °C78 %4.4 °C-NNE6 km/h7.8 1040 hPa-
04/02/2023 09:467.8 °C78 %4.4 °C---7.8 1040 hPa-
04/02/2023 09:457.8 °C78 %4.4 °C-NNE6 km/h7.8 1040 hPa-
04/02/2023 09:317.7 °C78 %3.9 °C-NNE3 km/h7.8 1040 hPa-
04/02/2023 09:307.7 °C78 %3.9 °C-NNE6 km/h7.8 1040 hPa-
04/02/2023 09:167.7 °C78 %3.9 °C2 km/hNNE5 km/h7.8 1040 hPa-
04/02/2023 09:157.7 °C78 %3.9 °C2 km/hNNE6 km/h7.8 1040 hPa-
04/02/2023 09:007.7 °C78 %3.9 °C2 km/hNNE6 km/h7.8 1039 hPa-
04/02/2023 08:597.7 °C78 %3.9 °C3 km/hNNE6 km/h7.2 1039 hPa-
04/02/2023 08:457.7 °C78 %3.9 °C3 km/hNNE6 km/h7.2 1039 hPa-
04/02/2023 08:447.7 °C78 %3.9 °C3 km/hNNE6 km/h7.2 1039 hPa-
04/02/2023 08:307.6 °C78 %3.9 °C-NNE6 km/h7.8 1039 hPa-
04/02/2023 08:297.7 °C78 %3.9 °C-NNE6 km/h7.8 1039 hPa-
04/02/2023 08:157.7 °C78 %3.9 °C3 km/hN6 km/h7.2 1039 hPa-
04/02/2023 08:147.7 °C78 %3.9 °C3 km/hN6 km/h7.2 1039 hPa-
04/02/2023 08:007.6 °C78 %3.9 °C2 km/hNNE6 km/h7.8 1039 hPa-
04/02/2023 07:597.6 °C78 %3.9 °C2 km/hN6 km/h7.8 1039 hPa-
04/02/2023 07:457.6 °C78 %3.9 °C3 km/hNNE5 km/h7.2 1039 hPa-
04/02/2023 07:447.6 °C78 %3.9 °C2 km/hNNE6 km/h7.8 1039 hPa-
04/02/2023 07:307.6 °C78 %3.9 °C2 km/hNNE5 km/h7.8 1039 hPa-
04/02/2023 07:297.6 °C78 %3.9 °C3 km/hNNE6 km/h7.2 1039 hPa-
04/02/2023 07:157.5 °C78 %3.9 °C---7.8 1039 hPa-
04/02/2023 07:147.5 °C78 %3.9 °C-NNE6 km/h7.8 1039 hPa-
04/02/2023 07:007.4 °C77 %3.9 °C---7.2 1039 hPa-
04/02/2023 06:597.4 °C77 %3.9 °C-NNE6 km/h7.2 1039 hPa-
04/02/2023 06:457.3 °C77 %3.3 °C---7.2 1039 hPa-
04/02/2023 06:447.3 °C77 %3.3 °C-NNE6 km/h7.2 1039 hPa-
04/02/2023 06:307.3 °C77 %3.3 °C---7.2 1039 hPa-
04/02/2023 06:297.3 °C77 %3.3 °C-NNE6 km/h7.2 1039 hPa-
04/02/2023 06:157.4 °C77 %3.9 °C-NNE3 km/h7.2 1039 hPa-
04/02/2023 06:147.4 °C77 %3.9 °C-NNE6 km/h7.2 1039 hPa-
04/02/2023 06:007.5 °C77 %3.9 °C5 km/hN6 km/h7.2 1039 hPa-
04/02/2023 05:597.4 °C77 %3.9 °C3 km/hN6 km/h6.7 1039 hPa-
04/02/2023 05:457.2 °C77 %3.3 °C3 km/hNNE5 km/h6.7 1039 hPa-
04/02/2023 05:447.2 °C77 %3.3 °C2 km/hNNE6 km/h7.2 1039 hPa-
04/02/2023 05:307.0 °C78 %3.3 °C2 km/hENE6 km/h7.2 1039 hPa-
04/02/2023 05:296.9 °C78 %3.3 °C2 km/hENE6 km/h7.2 1039 hPa-
04/02/2023 05:156.8 °C78 %3.3 °C2 km/hE5 km/h6.7 1039 hPa-
04/02/2023 05:146.8 °C78 %3.3 °C3 km/hE5 km/h6.1 1039 hPa-
04/02/2023 05:006.6 °C78 %2.8 °C2 km/hE3 km/h6.7 1039 hPa-
04/02/2023 04:596.6 °C78 %2.8 °C3 km/hE3 km/h6.1 1039 hPa-
04/02/2023 04:456.6 °C77 %2.8 °C-E3 km/h6.7 1039 hPa-
04/02/2023 04:306.6 °C77 %2.8 °C---6.7 1039 hPa-
04/02/2023 04:296.6 °C77 %2.8 °C-E3 km/h6.7 1039 hPa-
04/02/2023 04:156.6 °C77 %2.8 °C2 km/hE3 km/h6.7 1038 hPa-
04/02/2023 04:146.6 °C77 %2.8 °C-E3 km/h6.7 1039 hPa-
04/02/2023 04:006.6 °C77 %2.8 °C2 km/hE2 km/h6.7 1039 hPa-
04/02/2023 03:596.6 °C77 %2.8 °C-E3 km/h6.7 1039 hPa-
04/02/2023 03:456.7 °C76 %2.8 °C---6.7 1039 hPa-
04/02/2023 03:446.7 °C77 %2.8 °C-E3 km/h6.7 1039 hPa-
04/02/2023 03:306.7 °C76 %2.8 °C---6.7 1039 hPa-
04/02/2023 03:296.7 °C76 %2.8 °C-E3 km/h6.7 1039 hPa-
04/02/2023 03:156.8 °C76 %2.8 °C2 km/hE3 km/h6.7 1039 hPa-
04/02/2023 03:146.8 °C76 %2.8 °C2 km/hE3 km/h6.7 1039 hPa-
04/02/2023 03:006.7 °C76 %2.8 °C3 km/hE3 km/h6.1 1039 hPa-
04/02/2023 02:596.7 °C76 %2.8 °C-E3 km/h6.7 1039 hPa-
04/02/2023 02:456.7 °C76 %2.8 °C---6.7 1039 hPa-
04/02/2023 02:446.6 °C76 %2.8 °C-E3 km/h6.7 1039 hPa-
04/02/2023 02:306.6 °C76 %2.8 °C-E2 km/h6.7 1039 hPa-
04/02/2023 02:296.6 °C76 %2.8 °C2 km/hE3 km/h6.7 1039 hPa-
04/02/2023 02:156.6 °C76 %2.8 °C-E3 km/h6.7 1039 hPa-
04/02/2023 02:006.6 °C76 %2.8 °C2 km/hE3 km/h6.7 1039 hPa-
04/02/2023 01:466.5 °C76 %2.8 °C-E2 km/h6.7 1039 hPa-
04/02/2023 01:456.6 °C76 %2.8 °C-E3 km/h6.7 1039 hPa-
04/02/2023 01:316.6 °C76 %2.8 °C-E2 km/h6.7 1039 hPa-
04/02/2023 01:306.7 °C76 %2.8 °C2 km/hE3 km/h6.7 1039 hPa-
04/02/2023 01:166.7 °C76 %2.8 °C---6.7 1039 hPa-
04/02/2023 01:156.7 °C76 %2.8 °C-E3 km/h6.7 1039 hPa-
04/02/2023 01:026.8 °C75 %2.8 °C---6.7 1039 hPa-
04/02/2023 01:006.8 °C75 %2.8 °C-E3 km/h6.7 1039 hPa-
04/02/2023 00:466.8 °C75 %2.8 °C---6.7 1039 hPa-
04/02/2023 00:456.8 °C75 %2.8 °C-E3 km/h6.7 1039 hPa-
04/02/2023 00:306.8 °C75 %2.8 °C-E3 km/h6.7 1039 hPa-
04/02/2023 00:156.8 °C75 %2.8 °C-E2 km/h6.7 1039 hPa-
04/02/2023 00:006.8 °C75 %2.8 °C-E14 km/h6.7 1039 hPa-


Minima :

Température : 6.5 °C
Humidité : 69 %
Point de rosée : 2.8 °C
Vent moyen : 2 km/h
Windchill : 6.1
Pression atm. : 1038 hPa
Maxima :

Température : 10.4 °C
Humidité : 80 %
Point de rosée : 6.1 °C
Vent moyen : 13 km/h
Windchill : 10.6
Pression atm. : 1042 hPa
Rafales max : 23 km/h
Cumul de pluie sur 24H : 0 mm

Saint-Michel-en-Brenne est une commune du département Indre (36).
La station météorologique du réseau de l'association la plus proche de Saint-Michel-en-Brenne est celle de Villegouin


Descriptif du réseau de station de l'association Météo Centre (R.S.M.C)

Carte de la région Centre - Val de Loire

Carte de la région Centre - Val de Loire couvert par notre réseau météorologique

L'association météo centre et ses bénévoles développent et gère ce réseau. Il regroupe des stations météorologiques semi-professionnelles de marque Davis Instruments et est notamment composé de Davis Vantage Pro 2 mais aussi de Davis Vantage Vue.

Ce sont des passionnés de météorologie qui, avec ou sans l'aide de l'association, implantent ce type de matériel depuis la création de notre organisation en 2011.

Les données de chaque station de réseau sont hébergées sur le serveur de l'association. Elles sont ensuite mises gratuitement à votre disposition sur cette page, mais également sur la carte d'observation météorologique du Centre - Val de Loire.

Certaines stations sont installées en dehors de notre région. Elles permettent d'avoir une vision plus large des conditions météorologiques autour de notre territoire, retrouvez ici la carte de notre réseau de station Météo Centre (R.S.M.C).

Notre réseau surveille donc en permanence les conditions météo dans la région Centre - Val de Loire. Si vous possédez du matériel météo de marque Davis, faite comme plus de 60 autres passionnés, contactez nous pour nous rejoindre.


Contenu des archives météo de notre réseau

Chaque station météo du réseau émet les données suivantes toutes les 15 à 30 minutes :

Station météorologique Davis Vantage Pro 2

Exemple de station météorologique du réseau de station Météo Centre

  • la température extérieure
  • l'humidité
  • le point de rosée
  • la vitesse du vent
  • la direction du vent
  • les rafales
  • le windchill (refroidissement éolien)
  • la pression
  • le cumul de pluie

Nous archivons ces informations météorologiques et nous les mettons gratuitement à disposition du grand public. Nous les partageons également avec des professionnels, des collectivités voire des établissements publics quand ils en expriment le besoin.

Toutefois, les archives des stations ne sont pas toutes aussi anciennes puisque les installations se déroulent année après année. Retrouvez ces archives météo pour la région Centre - Val de Loire en cliquant ici.

Merci à tous les propriétaires de stations météorologiques de partager leurs données mais aussi de les rendre accessibles au plus grand nombre.